Arcanum, Ohio
Current Conditions -  °F | °C
As of 11:35 AM on Tuesday 21 Oct 2014 (Local Time) from KVES Reporting Station
Light Rain Light Rain  
Wind Chill: 42°   Ceiling: 1600
Heat Index: 46°   Visibility: 5mi
Dew Point: 45°   Wind: 9mph
Humidity: 93%   Direction: 340°NNW
Pressure: 30.04"   Gusts: NA
Location:  39.99°N, 84.55°W
Report Text: KVES 211535Z AUTO 34008KT 5SM -RA BKN016 OVC020 08/07 A3004 RMK AO2
Loading
Personal Weather Stations






























Interactive Weather Map New forecast layout! Learn more

10-Day Weather Forecast

Advertisements
Track Severe Weather on mobile